Terminal Aerodrome Forecast
Issued by NWS

Home | Current Version | Previous Version | Text Only | Print | Product List | Glossary On
Versions: 1 2 3 4 5 6 7 8 9 10 11 12
000
FTUS45 KVEF 251700
TAFHND
TAF
KHND 251730Z 2518/2618 18011KT P6SM FEW100
     FM251900 21017G26KT P6SM SCT100
     FM260300 20012G20KT P6SM SCT100=

USA.gov is the U.S. government's official web portal to all federal, state and local government web resources and services.